sensor_id;sensor_type;location;lat;lon;timestamp;temperature;humidity
13928;DHT22;7036;50.834;4.718;2023-04-08T00:00:11;17.90;56.00
13928;DHT22;7036;50.834;4.718;2023-04-08T00:02:38;17.80;56.00
13928;DHT22;7036;50.834;4.718;2023-04-08T00:05:05;17.80;56.10
13928;DHT22;7036;50.834;4.718;2023-04-08T00:07:32;17.80;56.10
13928;DHT22;7036;50.834;4.718;2023-04-08T00:10:00;17.80;56.10
13928;DHT22;7036;50.834;4.718;2023-04-08T00:12:28;17.90;56.10
13928;DHT22;7036;50.834;4.718;2023-04-08T00:14:56;17.80;56.10
13928;DHT22;7036;50.834;4.718;2023-04-08T00:17:24;17.80;56.10
13928;DHT22;7036;50.834;4.718;2023-04-08T00:19:52;17.80;56.00
13928;DHT22;7036;50.834;4.718;2023-04-08T00:22:20;17.80;56.00
13928;DHT22;7036;50.834;4.718;2023-04-08T00:24:48;17.80;56.10
13928;DHT22;7036;50.834;4.718;2023-04-08T00:27:16;17.80;56.10
13928;DHT22;7036;50.834;4.718;2023-04-08T00:29:45;17.80;56.20
13928;DHT22;7036;50.834;4.718;2023-04-08T00:32:12;17.80;56.10
13928;DHT22;7036;50.834;4.718;2023-04-08T00:34:40;17.80;56.10
13928;DHT22;7036;50.834;4.718;2023-04-08T00:37:07;17.80;56.00
13928;DHT22;7036;50.834;4.718;2023-04-08T00:39:36;17.80;56.00
13928;DHT22;7036;50.834;4.718;2023-04-08T00:42:01;17.80;55.40
13928;DHT22;7036;50.834;4.718;2023-04-08T00:44:28;17.80;56.00
13928;DHT22;7036;50.834;4.718;2023-04-08T00:46:56;17.80;56.10
13928;DHT22;7036;50.834;4.718;2023-04-08T00:49:24;17.80;56.00
13928;DHT22;7036;50.834;4.718;2023-04-08T00:51:52;17.80;56.10
13928;DHT22;7036;50.834;4.718;2023-04-08T00:54:19;17.80;56.00
13928;DHT22;7036;50.834;4.718;2023-04-08T00:56:46;17.80;56.10
13928;DHT22;7036;50.834;4.718;2023-04-08T00:59:16;17.80;56.10
13928;DHT22;7036;50.834;4.718;2023-04-08T01:07:14;17.70;56.20
13928;DHT22;7036;50.834;4.718;2023-04-08T01:09:41;17.70;56.20
13928;DHT22;7036;50.834;4.718;2023-04-08T01:12:07;17.70;56.00
13928;DHT22;7036;50.834;4.718;2023-04-08T01:14:37;17.70;56.20
13928;DHT22;7036;50.834;4.718;2023-04-08T01:17:01;17.70;56.10
13928;DHT22;7036;50.834;4.718;2023-04-08T01:19:32;17.70;56.20
13928;DHT22;7036;50.834;4.718;2023-04-08T01:22:01;17.80;56.10
13928;DHT22;7036;50.834;4.718;2023-04-08T01:24:27;17.80;56.10
13928;DHT22;7036;50.834;4.718;2023-04-08T01:26:54;17.80;56.10
13928;DHT22;7036;50.834;4.718;2023-04-08T01:29:23;17.70;56.10
13928;DHT22;7036;50.834;4.718;2023-04-08T01:31:50;17.70;56.20
13928;DHT22;7036;50.834;4.718;2023-04-08T01:34:17;17.70;56.00
13928;DHT22;7036;50.834;4.718;2023-04-08T01:36:45;17.70;56.10
13928;DHT22;7036;50.834;4.718;2023-04-08T01:39:13;17.70;56.20
13928;DHT22;7036;50.834;4.718;2023-04-08T01:41:41;17.70;56.20
13928;DHT22;7036;50.834;4.718;2023-04-08T01:44:09;17.70;56.20
13928;DHT22;7036;50.834;4.718;2023-04-08T01:46:36;17.70;56.00
13928;DHT22;7036;50.834;4.718;2023-04-08T01:49:04;17.70;56.20
13928;DHT22;7036;50.834;4.718;2023-04-08T01:51:32;17.70;56.20
13928;DHT22;7036;50.834;4.718;2023-04-08T01:54:00;17.70;56.20
13928;DHT22;7036;50.834;4.718;2023-04-08T01:56:28;17.70;56.20
13928;DHT22;7036;50.834;4.718;2023-04-08T01:58:56;17.70;56.20
13928;DHT22;7036;50.834;4.718;2023-04-08T02:01:24;17.60;56.20
13928;DHT22;7036;50.834;4.718;2023-04-08T02:03:52;17.70;56.20
13928;DHT22;7036;50.834;4.718;2023-04-08T02:06:20;17.60;56.20
13928;DHT22;7036;50.834;4.718;2023-04-08T02:08:48;17.60;56.10
13928;DHT22;7036;50.834;4.718;2023-04-08T02:11:15;17.60;56.10
13928;DHT22;7036;50.834;4.718;2023-04-08T02:13:42;17.60;56.10
13928;DHT22;7036;50.834;4.718;2023-04-08T02:16:13;17.60;56.10
13928;DHT22;7036;50.834;4.718;2023-04-08T02:18:37;17.60;56.20
13928;DHT22;7036;50.834;4.718;2023-04-08T02:21:12;17.60;56.10
13928;DHT22;7036;50.834;4.718;2023-04-08T02:23:38;17.60;56.10
13928;DHT22;7036;50.834;4.718;2023-04-08T02:26:14;17.60;56.20
13928;DHT22;7036;50.834;4.718;2023-04-08T02:28:36;17.60;56.10
13928;DHT22;7036;50.834;4.718;2023-04-08T02:31:02;17.60;56.10
13928;DHT22;7036;50.834;4.718;2023-04-08T02:33:30;17.60;56.30
13928;DHT22;7036;50.834;4.718;2023-04-08T02:35:58;17.60;56.20
13928;DHT22;7036;50.834;4.718;2023-04-08T02:38:27;17.60;56.20
13928;DHT22;7036;50.834;4.718;2023-04-08T02:40:53;17.60;56.10
13928;DHT22;7036;50.834;4.718;2023-04-08T02:43:21;17.60;56.20
13928;DHT22;7036;50.834;4.718;2023-04-08T02:45:48;17.60;56.10
13928;DHT22;7036;50.834;4.718;2023-04-08T02:48:16;17.60;56.20
13928;DHT22;7036;50.834;4.718;2023-04-08T02:50:43;17.60;56.20
13928;DHT22;7036;50.834;4.718;2023-04-08T02:53:10;17.60;56.20
13928;DHT22;7036;50.834;4.718;2023-04-08T02:55:37;17.60;56.10
13928;DHT22;7036;50.834;4.718;2023-04-08T02:58:05;17.60;56.10
13928;DHT22;7036;50.834;4.718;2023-04-08T03:00:32;17.60;56.20
13928;DHT22;7036;50.834;4.718;2023-04-08T03:03:01;17.60;56.00
13928;DHT22;7036;50.834;4.718;2023-04-08T03:05:27;17.60;56.10
13928;DHT22;7036;50.834;4.718;2023-04-08T03:07:55;17.50;56.20
13928;DHT22;7036;50.834;4.718;2023-04-08T03:10:23;17.50;56.10
13928;DHT22;7036;50.834;4.718;2023-04-08T03:12:51;17.60;56.20
13928;DHT22;7036;50.834;4.718;2023-04-08T03:15:18;17.50;56.10
13928;DHT22;7036;50.834;4.718;2023-04-08T03:17:45;17.50;56.10
13928;DHT22;7036;50.834;4.718;2023-04-08T03:20:12;17.60;56.20
13928;DHT22;7036;50.834;4.718;2023-04-08T03:22:39;17.50;56.30
13928;DHT22;7036;50.834;4.718;2023-04-08T03:25:07;17.50;56.20
13928;DHT22;7036;50.834;4.718;2023-04-08T03:27:35;17.60;56.30
13928;DHT22;7036;50.834;4.718;2023-04-08T03:30:02;17.60;56.20
13928;DHT22;7036;50.834;4.718;2023-04-08T03:32:30;17.50;56.20
13928;DHT22;7036;50.834;4.718;2023-04-08T03:34:57;17.50;56.10
13928;DHT22;7036;50.834;4.718;2023-04-08T03:37:25;17.50;56.30
13928;DHT22;7036;50.834;4.718;2023-04-08T03:39:53;17.50;56.10
13928;DHT22;7036;50.834;4.718;2023-04-08T03:42:20;17.50;56.30
13928;DHT22;7036;50.834;4.718;2023-04-08T03:44:48;17.50;56.20
13928;DHT22;7036;50.834;4.718;2023-04-08T03:47:16;17.50;56.30
13928;DHT22;7036;50.834;4.718;2023-04-08T03:49:43;17.40;56.20
13928;DHT22;7036;50.834;4.718;2023-04-08T03:52:11;17.50;56.30
13928;DHT22;7036;50.834;4.718;2023-04-08T03:54:38;17.50;56.20
13928;DHT22;7036;50.834;4.718;2023-04-08T03:57:06;17.50;56.30
13928;DHT22;7036;50.834;4.718;2023-04-08T03:59:34;17.50;56.10
13928;DHT22;7036;50.834;4.718;2023-04-08T04:02:01;17.50;56.10
13928;DHT22;7036;50.834;4.718;2023-04-08T04:04:28;17.50;56.20
13928;DHT22;7036;50.834;4.718;2023-04-08T04:06:56;17.50;56.00
13928;DHT22;7036;50.834;4.718;2023-04-08T04:09:23;17.40;56.10
13928;DHT22;7036;50.834;4.718;2023-04-08T04:11:50;17.50;56.20
13928;DHT22;7036;50.834;4.718;2023-04-08T04:14:18;17.50;56.40
13928;DHT22;7036;50.834;4.718;2023-04-08T04:16:46;17.40;56.10
13928;DHT22;7036;50.834;4.718;2023-04-08T04:19:13;17.40;56.40
13928;DHT22;7036;50.834;4.718;2023-04-08T04:21:41;17.40;56.30
13928;DHT22;7036;50.834;4.718;2023-04-08T04:24:09;17.40;56.90
13928;DHT22;7036;50.834;4.718;2023-04-08T04:26:36;17.40;56.40
13928;DHT22;7036;50.834;4.718;2023-04-08T04:29:03;17.40;56.40
13928;DHT22;7036;50.834;4.718;2023-04-08T04:31:31;17.40;56.50
13928;DHT22;7036;50.834;4.718;2023-04-08T04:33:58;17.40;56.40
13928;DHT22;7036;50.834;4.718;2023-04-08T04:36:26;17.40;56.80
13928;DHT22;7036;50.834;4.718;2023-04-08T04:38:53;17.40;56.30
13928;DHT22;7036;50.834;4.718;2023-04-08T04:41:22;17.40;56.30
13928;DHT22;7036;50.834;4.718;2023-04-08T04:43:51;17.40;56.30
13928;DHT22;7036;50.834;4.718;2023-04-08T04:46:18;17.40;56.30
13928;DHT22;7036;50.834;4.718;2023-04-08T04:48:45;17.40;56.50
13928;DHT22;7036;50.834;4.718;2023-04-08T04:51:13;17.40;56.40
13928;DHT22;7036;50.834;4.718;2023-04-08T04:53:41;17.40;56.10
13928;DHT22;7036;50.834;4.718;2023-04-08T04:56:08;17.40;56.20
13928;DHT22;7036;50.834;4.718;2023-04-08T04:58:37;17.40;56.70
13928;DHT22;7036;50.834;4.718;2023-04-08T05:01:03;17.40;56.40
13928;DHT22;7036;50.834;4.718;2023-04-08T05:03:31;17.40;56.50
13928;DHT22;7036;50.834;4.718;2023-04-08T05:05:59;17.40;56.40
13928;DHT22;7036;50.834;4.718;2023-04-08T05:08:26;17.30;56.40
13928;DHT22;7036;50.834;4.718;2023-04-08T05:10:54;17.30;56.40
13928;DHT22;7036;50.834;4.718;2023-04-08T05:13:21;17.30;56.30
13928;DHT22;7036;50.834;4.718;2023-04-08T05:15:48;17.30;56.40
13928;DHT22;7036;50.834;4.718;2023-04-08T05:18:16;17.30;56.30
13928;DHT22;7036;50.834;4.718;2023-04-08T05:20:43;17.40;56.40
13928;DHT22;7036;50.834;4.718;2023-04-08T05:23:10;17.30;56.40
13928;DHT22;7036;50.834;4.718;2023-04-08T05:25:37;17.30;56.40
13928;DHT22;7036;50.834;4.718;2023-04-08T05:28:05;17.40;56.50
13928;DHT22;7036;50.834;4.718;2023-04-08T05:30:32;17.30;56.30
13928;DHT22;7036;50.834;4.718;2023-04-08T05:33:00;17.30;56.70
13928;DHT22;7036;50.834;4.718;2023-04-08T05:35:29;17.40;56.50
13928;DHT22;7036;50.834;4.718;2023-04-08T05:37:56;17.30;56.30
13928;DHT22;7036;50.834;4.718;2023-04-08T05:40:24;17.40;56.50
13928;DHT22;7036;50.834;4.718;2023-04-08T05:42:53;17.30;56.50
13928;DHT22;7036;50.834;4.718;2023-04-08T05:45:20;17.40;56.40
13928;DHT22;7036;50.834;4.718;2023-04-08T05:47:48;17.40;56.40
13928;DHT22;7036;50.834;4.718;2023-04-08T05:50:16;17.40;56.40
13928;DHT22;7036;50.834;4.718;2023-04-08T05:52:45;17.30;56.40
13928;DHT22;7036;50.834;4.718;2023-04-08T05:55:12;17.30;56.30
13928;DHT22;7036;50.834;4.718;2023-04-08T05:57:39;17.40;56.40
13928;DHT22;7036;50.834;4.718;2023-04-08T06:00:08;17.30;56.40
13928;DHT22;7036;50.834;4.718;2023-04-08T06:02:35;17.40;56.40
13928;DHT22;7036;50.834;4.718;2023-04-08T06:05:03;17.30;56.50
13928;DHT22;7036;50.834;4.718;2023-04-08T06:07:32;17.30;56.50
13928;DHT22;7036;50.834;4.718;2023-04-08T06:09:59;17.30;56.50
13928;DHT22;7036;50.834;4.718;2023-04-08T06:12:27;17.30;56.40
13928;DHT22;7036;50.834;4.718;2023-04-08T06:14:55;17.30;56.50
13928;DHT22;7036;50.834;4.718;2023-04-08T06:17:23;17.30;56.50
13928;DHT22;7036;50.834;4.718;2023-04-08T06:19:51;17.30;56.40
13928;DHT22;7036;50.834;4.718;2023-04-08T06:22:19;17.30;56.40
13928;DHT22;7036;50.834;4.718;2023-04-08T06:24:47;17.30;56.30
13928;DHT22;7036;50.834;4.718;2023-04-08T06:27:14;17.40;56.40
13928;DHT22;7036;50.834;4.718;2023-04-08T06:29:42;17.30;56.50
13928;DHT22;7036;50.834;4.718;2023-04-08T06:32:10;17.30;56.50
13928;DHT22;7036;50.834;4.718;2023-04-08T06:34:38;17.30;56.50
13928;DHT22;7036;50.834;4.718;2023-04-08T06:37:05;17.30;56.50
13928;DHT22;7036;50.834;4.718;2023-04-08T06:39:33;17.30;56.50
13928;DHT22;7036;50.834;4.718;2023-04-08T06:42:01;17.30;56.50
13928;DHT22;7036;50.834;4.718;2023-04-08T06:44:29;17.30;56.50
13928;DHT22;7036;50.834;4.718;2023-04-08T06:46:58;17.30;56.60
13928;DHT22;7036;50.834;4.718;2023-04-08T06:49:25;17.30;56.50
13928;DHT22;7036;50.834;4.718;2023-04-08T06:51:53;17.30;56.60
13928;DHT22;7036;50.834;4.718;2023-04-08T06:54:21;17.30;56.60
13928;DHT22;7036;50.834;4.718;2023-04-08T06:56:49;17.30;56.70
13928;DHT22;7036;50.834;4.718;2023-04-08T06:59:16;17.30;56.60
13928;DHT22;7036;50.834;4.718;2023-04-08T07:01:45;17.20;56.80
13928;DHT22;7036;50.834;4.718;2023-04-08T07:04:12;17.30;56.70
13928;DHT22;7036;50.834;4.718;2023-04-08T07:06:40;17.30;56.80
13928;DHT22;7036;50.834;4.718;2023-04-08T07:09:07;17.20;56.60
13928;DHT22;7036;50.834;4.718;2023-04-08T07:11:34;17.20;57.30
13928;DHT22;7036;50.834;4.718;2023-04-08T07:14:02;17.20;56.80
13928;DHT22;7036;50.834;4.718;2023-04-08T07:16:30;17.30;56.90
13928;DHT22;7036;50.834;4.718;2023-04-08T07:18:58;17.30;56.80
13928;DHT22;7036;50.834;4.718;2023-04-08T07:21:26;17.30;56.90
13928;DHT22;7036;50.834;4.718;2023-04-08T07:23:53;17.30;56.80
13928;DHT22;7036;50.834;4.718;2023-04-08T07:26:20;17.30;56.80
13928;DHT22;7036;50.834;4.718;2023-04-08T07:28:48;17.30;56.80
13928;DHT22;7036;50.834;4.718;2023-04-08T07:31:16;17.30;56.90
13928;DHT22;7036;50.834;4.718;2023-04-08T07:33:43;17.20;56.80
13928;DHT22;7036;50.834;4.718;2023-04-08T07:36:11;17.30;56.10
13928;DHT22;7036;50.834;4.718;2023-04-08T07:38:38;17.30;57.00
13928;DHT22;7036;50.834;4.718;2023-04-08T07:41:06;17.30;57.00
13928;DHT22;7036;50.834;4.718;2023-04-08T07:43:34;17.30;56.90
13928;DHT22;7036;50.834;4.718;2023-04-08T07:46:02;17.30;57.00
13928;DHT22;7036;50.834;4.718;2023-04-08T07:48:30;17.30;56.90
13928;DHT22;7036;50.834;4.718;2023-04-08T07:51:01;17.30;56.90
13928;DHT22;7036;50.834;4.718;2023-04-08T07:53:26;17.30;57.00
13928;DHT22;7036;50.834;4.718;2023-04-08T07:55:55;17.30;57.00
13928;DHT22;7036;50.834;4.718;2023-04-08T07:58:21;17.20;56.80
13928;DHT22;7036;50.834;4.718;2023-04-08T08:00:49;17.30;56.90
13928;DHT22;7036;50.834;4.718;2023-04-08T08:03:17;17.30;57.00
13928;DHT22;7036;50.834;4.718;2023-04-08T08:05:44;17.30;56.90
13928;DHT22;7036;50.834;4.718;2023-04-08T08:08:12;17.30;57.10
13928;DHT22;7036;50.834;4.718;2023-04-08T08:10:40;17.30;57.00
13928;DHT22;7036;50.834;4.718;2023-04-08T08:13:08;17.30;56.90
13928;DHT22;7036;50.834;4.718;2023-04-08T08:15:37;17.30;56.80
13928;DHT22;7036;50.834;4.718;2023-04-08T08:18:03;17.30;56.70
13928;DHT22;7036;50.834;4.718;2023-04-08T08:20:31;17.40;56.90
13928;DHT22;7036;50.834;4.718;2023-04-08T08:22:59;17.50;56.80
13928;DHT22;7036;50.834;4.718;2023-04-08T08:25:29;17.60;56.80
13928;DHT22;7036;50.834;4.718;2023-04-08T08:27:56;17.50;56.60
13928;DHT22;7036;50.834;4.718;2023-04-08T08:30:23;17.70;56.70
13928;DHT22;7036;50.834;4.718;2023-04-08T08:32:51;17.80;56.70
13928;DHT22;7036;50.834;4.718;2023-04-08T08:35:19;17.90;56.50
13928;DHT22;7036;50.834;4.718;2023-04-08T08:37:47;18.00;56.50
13928;DHT22;7036;50.834;4.718;2023-04-08T08:40:14;18.00;56.40
13928;DHT22;7036;50.834;4.718;2023-04-08T08:42:48;18.10;56.40
13928;DHT22;7036;50.834;4.718;2023-04-08T08:45:09;18.10;56.20
13928;DHT22;7036;50.834;4.718;2023-04-08T08:47:38;18.20;56.50
13928;DHT22;7036;50.834;4.718;2023-04-08T08:50:05;18.20;56.40
13928;DHT22;7036;50.834;4.718;2023-04-08T08:52:32;18.20;56.40
13928;DHT22;7036;50.834;4.718;2023-04-08T08:55:00;18.30;56.50
13928;DHT22;7036;50.834;4.718;2023-04-08T08:57:28;18.30;56.60
13928;DHT22;7036;50.834;4.718;2023-04-08T08:59:56;18.20;56.60
13928;DHT22;7036;50.834;4.718;2023-04-08T09:02:24;18.30;57.20
13928;DHT22;7036;50.834;4.718;2023-04-08T09:05:01;18.30;56.60
13928;DHT22;7036;50.834;4.718;2023-04-08T09:07:24;18.20;56.50
13928;DHT22;7036;50.834;4.718;2023-04-08T09:09:51;18.30;56.60
13928;DHT22;7036;50.834;4.718;2023-04-08T09:12:19;18.30;56.60
13928;DHT22;7036;50.834;4.718;2023-04-08T09:14:46;18.30;56.50
13928;DHT22;7036;50.834;4.718;2023-04-08T09:17:14;18.30;56.60
13928;DHT22;7036;50.834;4.718;2023-04-08T09:20:14;18.30;56.60
13928;DHT22;7036;50.834;4.718;2023-04-08T09:22:13;18.40;56.60
13928;DHT22;7036;50.834;4.718;2023-04-08T09:24:40;18.40;56.60
13928;DHT22;7036;50.834;4.718;2023-04-08T09:27:07;18.40;56.60
13928;DHT22;7036;50.834;4.718;2023-04-08T09:29:35;18.40;56.50
13928;DHT22;7036;50.834;4.718;2023-04-08T09:32:03;18.50;56.60
13928;DHT22;7036;50.834;4.718;2023-04-08T09:34:31;18.50;56.60
13928;DHT22;7036;50.834;4.718;2023-04-08T09:36:59;18.50;56.50
13928;DHT22;7036;50.834;4.718;2023-04-08T09:39:26;18.50;56.40
13928;DHT22;7036;50.834;4.718;2023-04-08T09:41:53;18.50;56.50
13928;DHT22;7036;50.834;4.718;2023-04-08T09:44:20;18.50;56.40
13928;DHT22;7036;50.834;4.718;2023-04-08T09:49:28;18.50;56.50
13928;DHT22;7036;50.834;4.718;2023-04-08T09:52:14;18.50;56.50
13928;DHT22;7036;50.834;4.718;2023-04-08T09:55:04;18.50;56.50
13928;DHT22;7036;50.834;4.718;2023-04-08T09:57:35;18.50;56.50
13928;DHT22;7036;50.834;4.718;2023-04-08T10:00:04;18.50;56.50
13928;DHT22;7036;50.834;4.718;2023-04-08T10:02:28;18.50;57.10
13928;DHT22;7036;50.834;4.718;2023-04-08T10:04:54;18.50;56.50
13928;DHT22;7036;50.834;4.718;2023-04-08T10:07:22;18.50;56.70
13928;DHT22;7036;50.834;4.718;2023-04-08T10:09:49;18.50;56.50
13928;DHT22;7036;50.834;4.718;2023-04-08T10:12:16;18.50;56.50
13928;DHT22;7036;50.834;4.718;2023-04-08T10:15:28;18.50;56.60
13928;DHT22;7036;50.834;4.718;2023-04-08T10:17:24;18.50;56.60
13928;DHT22;7036;50.834;4.718;2023-04-08T10:19:50;18.50;56.60
13928;DHT22;7036;50.834;4.718;2023-04-08T10:27:42;18.50;56.50
13928;DHT22;7036;50.834;4.718;2023-04-08T10:32:57;18.60;56.30
13928;DHT22;7036;50.834;4.718;2023-04-08T10:35:37;18.70;56.40
13928;DHT22;7036;50.834;4.718;2023-04-08T10:38:03;18.70;56.20
13928;DHT22;7036;50.834;4.718;2023-04-08T10:40:34;18.70;56.20
13928;DHT22;7036;50.834;4.718;2023-04-08T10:42:58;18.70;56.10
13928;DHT22;7036;50.834;4.718;2023-04-08T10:45:24;18.80;56.10
13928;DHT22;7036;50.834;4.718;2023-04-08T10:47:52;18.80;56.10
13928;DHT22;7036;50.834;4.718;2023-04-08T10:50:20;18.80;56.10
13928;DHT22;7036;50.834;4.718;2023-04-08T10:52:51;18.80;56.10
13928;DHT22;7036;50.834;4.718;2023-04-08T10:55:21;18.90;55.80
13928;DHT22;7036;50.834;4.718;2023-04-08T10:57:44;18.90;56.20
13928;DHT22;7036;50.834;4.718;2023-04-08T11:00:15;18.90;56.10
13928;DHT22;7036;50.834;4.718;2023-04-08T11:02:39;18.90;56.20
13928;DHT22;7036;50.834;4.718;2023-04-08T11:05:08;18.90;56.10
13928;DHT22;7036;50.834;4.718;2023-04-08T11:07:43;18.90;56.10
13928;DHT22;7036;50.834;4.718;2023-04-08T11:10:04;18.90;56.10
13928;DHT22;7036;50.834;4.718;2023-04-08T11:12:32;19.00;56.10
13928;DHT22;7036;50.834;4.718;2023-04-08T11:14:58;19.00;56.00
13928;DHT22;7036;50.834;4.718;2023-04-08T11:17:26;19.00;56.00
13928;DHT22;7036;50.834;4.718;2023-04-08T11:19:53;19.00;55.90
13928;DHT22;7036;50.834;4.718;2023-04-08T11:22:21;19.00;55.90
13928;DHT22;7036;50.834;4.718;2023-04-08T11:24:48;19.00;55.80
13928;DHT22;7036;50.834;4.718;2023-04-08T11:27:16;19.00;55.90
13928;DHT22;7036;50.834;4.718;2023-04-08T11:29:43;19.00;55.70
13928;DHT22;7036;50.834;4.718;2023-04-08T11:32:11;19.10;55.80
13928;DHT22;7036;50.834;4.718;2023-04-08T11:34:39;19.00;55.70
13928;DHT22;7036;50.834;4.718;2023-04-08T11:37:06;19.10;55.80
13928;DHT22;7036;50.834;4.718;2023-04-08T11:39:33;19.00;55.80
13928;DHT22;7036;50.834;4.718;2023-04-08T11:42:01;19.10;56.20
13928;DHT22;7036;50.834;4.718;2023-04-08T11:44:31;19.10;55.80
13928;DHT22;7036;50.834;4.718;2023-04-08T11:46:58;19.10;55.80
13928;DHT22;7036;50.834;4.718;2023-04-08T11:49:25;19.10;55.80
13928;DHT22;7036;50.834;4.718;2023-04-08T11:51:56;19.10;55.70
13928;DHT22;7036;50.834;4.718;2023-04-08T11:54:28;19.10;55.70
13928;DHT22;7036;50.834;4.718;2023-04-08T11:56:54;19.10;55.70
13928;DHT22;7036;50.834;4.718;2023-04-08T11:59:25;19.10;55.90
13928;DHT22;7036;50.834;4.718;2023-04-08T12:01:52;19.10;55.70
13928;DHT22;7036;50.834;4.718;2023-04-08T12:04:17;19.10;56.00
13928;DHT22;7036;50.834;4.718;2023-04-08T12:06:44;19.10;55.90
13928;DHT22;7036;50.834;4.718;2023-04-08T12:09:15;19.20;56.30
13928;DHT22;7036;50.834;4.718;2023-04-08T12:11:41;19.20;56.70
13928;DHT22;7036;50.834;4.718;2023-04-08T12:14:09;19.30;57.10
13928;DHT22;7036;50.834;4.718;2023-04-08T12:16:36;19.30;56.90
13928;DHT22;7036;50.834;4.718;2023-04-08T12:19:04;19.30;56.90
13928;DHT22;7036;50.834;4.718;2023-04-08T12:21:31;19.30;56.80
13928;DHT22;7036;50.834;4.718;2023-04-08T12:23:59;19.30;56.90
13928;DHT22;7036;50.834;4.718;2023-04-08T12:26:27;19.30;56.70
13928;DHT22;7036;50.834;4.718;2023-04-08T12:28:55;19.30;56.60
13928;DHT22;7036;50.834;4.718;2023-04-08T12:31:21;19.30;56.60
13928;DHT22;7036;50.834;4.718;2023-04-08T12:33:50;19.30;56.60
13928;DHT22;7036;50.834;4.718;2023-04-08T12:36:17;19.30;56.60
13928;DHT22;7036;50.834;4.718;2023-04-08T12:38:44;19.30;56.50
13928;DHT22;7036;50.834;4.718;2023-04-08T12:41:11;19.30;56.40
13928;DHT22;7036;50.834;4.718;2023-04-08T12:43:38;19.40;56.40
13928;DHT22;7036;50.834;4.718;2023-04-08T12:46:06;19.40;56.50
13928;DHT22;7036;50.834;4.718;2023-04-08T12:48:34;19.40;56.40
13928;DHT22;7036;50.834;4.718;2023-04-08T12:51:02;19.40;56.40
13928;DHT22;7036;50.834;4.718;2023-04-08T12:53:30;19.40;56.40
13928;DHT22;7036;50.834;4.718;2023-04-08T12:55:58;19.40;56.40
13928;DHT22;7036;50.834;4.718;2023-04-08T12:58:26;19.40;56.40
13928;DHT22;7036;50.834;4.718;2023-04-08T13:00:53;19.40;56.20
13928;DHT22;7036;50.834;4.718;2023-04-08T13:03:21;19.40;56.20
13928;DHT22;7036;50.834;4.718;2023-04-08T13:05:48;19.40;56.20
13928;DHT22;7036;50.834;4.718;2023-04-08T13:08:15;19.50;56.20
13928;DHT22;7036;50.834;4.718;2023-04-08T13:10:42;19.50;56.20
13928;DHT22;7036;50.834;4.718;2023-04-08T13:13:10;19.50;56.50
13928;DHT22;7036;50.834;4.718;2023-04-08T13:15:39;19.50;56.20
13928;DHT22;7036;50.834;4.718;2023-04-08T13:18:05;19.50;56.00
13928;DHT22;7036;50.834;4.718;2023-04-08T13:20:33;19.50;56.00
13928;DHT22;7036;50.834;4.718;2023-04-08T13:23:01;19.50;56.10
13928;DHT22;7036;50.834;4.718;2023-04-08T13:25:29;19.50;56.10
13928;DHT22;7036;50.834;4.718;2023-04-08T13:27:57;19.60;56.10
13928;DHT22;7036;50.834;4.718;2023-04-08T13:30:25;19.60;56.00
13928;DHT22;7036;50.834;4.718;2023-04-08T13:32:53;19.60;56.00
13928;DHT22;7036;50.834;4.718;2023-04-08T13:35:20;19.60;55.90
13928;DHT22;7036;50.834;4.718;2023-04-08T13:37:48;19.60;55.90
13928;DHT22;7036;50.834;4.718;2023-04-08T13:40:16;19.60;55.90
13928;DHT22;7036;50.834;4.718;2023-04-08T13:42:44;19.70;55.90
13928;DHT22;7036;50.834;4.718;2023-04-08T13:45:11;19.60;55.70
13928;DHT22;7036;50.834;4.718;2023-04-08T13:47:39;19.70;56.10
13928;DHT22;7036;50.834;4.718;2023-04-08T13:50:07;19.70;55.90
13928;DHT22;7036;50.834;4.718;2023-04-08T13:52:35;19.70;55.80
13928;DHT22;7036;50.834;4.718;2023-04-08T13:55:03;19.70;55.80
13928;DHT22;7036;50.834;4.718;2023-04-08T13:57:31;19.70;55.70
13928;DHT22;7036;50.834;4.718;2023-04-08T13:59:58;19.70;55.70
13928;DHT22;7036;50.834;4.718;2023-04-08T14:02:26;19.70;55.80
13928;DHT22;7036;50.834;4.718;2023-04-08T14:04:53;19.70;55.70
13928;DHT22;7036;50.834;4.718;2023-04-08T14:07:20;19.70;55.70
13928;DHT22;7036;50.834;4.718;2023-04-08T14:09:47;19.70;56.30
13928;DHT22;7036;50.834;4.718;2023-04-08T14:12:15;19.70;55.70
13928;DHT22;7036;50.834;4.718;2023-04-08T14:14:42;19.70;55.60
13928;DHT22;7036;50.834;4.718;2023-04-08T14:17:09;19.70;55.60
13928;DHT22;7036;50.834;4.718;2023-04-08T14:19:36;19.70;55.60
13928;DHT22;7036;50.834;4.718;2023-04-08T14:22:04;19.80;55.70
13928;DHT22;7036;50.834;4.718;2023-04-08T14:24:31;19.70;55.60
13928;DHT22;7036;50.834;4.718;2023-04-08T14:26:59;19.70;55.60
13928;DHT22;7036;50.834;4.718;2023-04-08T14:29:27;19.70;56.20
13928;DHT22;7036;50.834;4.718;2023-04-08T14:31:54;19.70;56.20
13928;DHT22;7036;50.834;4.718;2023-04-08T14:34:21;19.70;55.50
13928;DHT22;7036;50.834;4.718;2023-04-08T14:36:48;19.80;55.60
13928;DHT22;7036;50.834;4.718;2023-04-08T14:39:15;19.80;55.60
13928;DHT22;7036;50.834;4.718;2023-04-08T14:41:43;19.80;56.30
13928;DHT22;7036;50.834;4.718;2023-04-08T14:44:11;19.80;55.70
13928;DHT22;7036;50.834;4.718;2023-04-08T14:46:39;19.80;55.70
13928;DHT22;7036;50.834;4.718;2023-04-08T14:49:07;19.80;55.80
13928;DHT22;7036;50.834;4.718;2023-04-08T14:51:35;19.80;55.70
13928;DHT22;7036;50.834;4.718;2023-04-08T14:54:03;19.80;55.60
13928;DHT22;7036;50.834;4.718;2023-04-08T14:56:32;19.80;55.60
13928;DHT22;7036;50.834;4.718;2023-04-08T14:58:59;19.70;55.50
13928;DHT22;7036;50.834;4.718;2023-04-08T15:01:27;19.80;55.60
13928;DHT22;7036;50.834;4.718;2023-04-08T15:03:55;19.80;55.60
13928;DHT22;7036;50.834;4.718;2023-04-08T15:06:23;19.80;55.60
13928;DHT22;7036;50.834;4.718;2023-04-08T15:08:50;19.80;55.50
13928;DHT22;7036;50.834;4.718;2023-04-08T15:11:17;19.80;55.50
13928;DHT22;7036;50.834;4.718;2023-04-08T15:13:45;19.80;55.50
13928;DHT22;7036;50.834;4.718;2023-04-08T15:16:13;19.80;55.60
13928;DHT22;7036;50.834;4.718;2023-04-08T15:18:39;19.80;55.40
13928;DHT22;7036;50.834;4.718;2023-04-08T15:21:07;19.80;55.50
13928;DHT22;7036;50.834;4.718;2023-04-08T15:23:34;19.80;55.40
13928;DHT22;7036;50.834;4.718;2023-04-08T15:26:02;19.80;55.50
13928;DHT22;7036;50.834;4.718;2023-04-08T15:28:30;19.80;55.50
13928;DHT22;7036;50.834;4.718;2023-04-08T15:30:57;19.70;55.30
13928;DHT22;7036;50.834;4.718;2023-04-08T15:33:25;19.80;55.30
13928;DHT22;7036;50.834;4.718;2023-04-08T15:35:53;19.80;55.50
13928;DHT22;7036;50.834;4.718;2023-04-08T15:38:21;19.80;55.40
13928;DHT22;7036;50.834;4.718;2023-04-08T15:40:48;19.80;55.30
13928;DHT22;7036;50.834;4.718;2023-04-08T15:43:15;19.80;55.30
13928;DHT22;7036;50.834;4.718;2023-04-08T15:45:42;19.80;55.30
13928;DHT22;7036;50.834;4.718;2023-04-08T15:48:10;19.90;55.50
13928;DHT22;7036;50.834;4.718;2023-04-08T15:50:38;19.90;55.40
13928;DHT22;7036;50.834;4.718;2023-04-08T15:53:05;19.80;55.30
13928;DHT22;7036;50.834;4.718;2023-04-08T15:55:40;19.80;55.10
13928;DHT22;7036;50.834;4.718;2023-04-08T15:58:06;19.90;55.10
13928;DHT22;7036;50.834;4.718;2023-04-08T16:00:34;19.90;55.10
13928;DHT22;7036;50.834;4.718;2023-04-08T16:03:01;19.80;55.00